sensor_id;sensor_type;location;lat;lon;timestamp;P1;durP1;ratioP1;P2;durP2;ratioP2
52838;SDS011;39219;53.678;9.856;2023-05-07T00:01:02;16.98;;;9.98;;
52838;SDS011;39219;53.678;9.856;2023-05-07T00:03:30;16.73;;;10.43;;
52838;SDS011;39219;53.678;9.856;2023-05-07T00:05:57;16.58;;;9.95;;
52838;SDS011;39219;53.678;9.856;2023-05-07T00:08:24;16.85;;;10.50;;
52838;SDS011;39219;53.678;9.856;2023-05-07T00:10:50;16.88;;;10.63;;
52838;SDS011;39219;53.678;9.856;2023-05-07T00:13:16;16.92;;;10.50;;
52838;SDS011;39219;53.678;9.856;2023-05-07T00:15:43;19.85;;;10.65;;
52838;SDS011;39219;53.678;9.856;2023-05-07T00:18:11;18.10;;;10.57;;
52838;SDS011;39219;53.678;9.856;2023-05-07T00:20:37;18.15;;;10.18;;
52838;SDS011;39219;53.678;9.856;2023-05-07T00:23:04;16.65;;;9.75;;
52838;SDS011;39219;53.678;9.856;2023-05-07T00:25:30;17.02;;;9.40;;
52838;SDS011;39219;53.678;9.856;2023-05-07T00:27:56;16.23;;;9.23;;
52838;SDS011;39219;53.678;9.856;2023-05-07T00:30:27;15.82;;;8.98;;
52838;SDS011;39219;53.678;9.856;2023-05-07T00:32:54;15.80;;;9.30;;
52838;SDS011;39219;53.678;9.856;2023-05-07T00:35:22;16.95;;;9.70;;
52838;SDS011;39219;53.678;9.856;2023-05-07T00:37:48;15.13;;;9.00;;
52838;SDS011;39219;53.678;9.856;2023-05-07T00:40:15;18.55;;;10.13;;
52838;SDS011;39219;53.678;9.856;2023-05-07T00:42:41;15.85;;;9.52;;
52838;SDS011;39219;53.678;9.856;2023-05-07T00:45:12;17.33;;;9.70;;
52838;SDS011;39219;53.678;9.856;2023-05-07T00:47:38;18.83;;;10.57;;
52838;SDS011;39219;53.678;9.856;2023-05-07T00:50:05;17.65;;;9.95;;
52838;SDS011;39219;53.678;9.856;2023-05-07T00:52:36;16.23;;;9.68;;
52838;SDS011;39219;53.678;9.856;2023-05-07T00:55:04;15.82;;;9.23;;
52838;SDS011;39219;53.678;9.856;2023-05-07T00:57:32;16.60;;;9.80;;
52838;SDS011;39219;53.678;9.856;2023-05-07T01:00:02;19.95;;;10.95;;
52838;SDS011;39219;53.678;9.856;2023-05-07T01:02:30;30.48;;;10.93;;
52838;SDS011;39219;53.678;9.856;2023-05-07T01:04:56;17.10;;;9.82;;
52838;SDS011;39219;53.678;9.856;2023-05-07T01:07:23;20.27;;;10.02;;
52838;SDS011;39219;53.678;9.856;2023-05-07T01:09:51;17.25;;;10.18;;
52838;SDS011;39219;53.678;9.856;2023-05-07T01:12:18;18.45;;;10.32;;
52838;SDS011;39219;53.678;9.856;2023-05-07T01:14:44;17.13;;;9.80;;
52838;SDS011;39219;53.678;9.856;2023-05-07T01:17:11;17.08;;;9.98;;
52838;SDS011;39219;53.678;9.856;2023-05-07T01:19:37;18.17;;;9.85;;
52838;SDS011;39219;53.678;9.856;2023-05-07T01:22:08;19.00;;;10.35;;
52838;SDS011;39219;53.678;9.856;2023-05-07T01:24:37;16.95;;;10.15;;
52838;SDS011;39219;53.678;9.856;2023-05-07T01:27:04;19.40;;;10.18;;
52838;SDS011;39219;53.678;9.856;2023-05-07T01:29:30;18.27;;;10.38;;
52838;SDS011;39219;53.678;9.856;2023-05-07T01:31:57;19.58;;;10.48;;
52838;SDS011;39219;53.678;9.856;2023-05-07T01:34:25;17.98;;;10.30;;
52838;SDS011;39219;53.678;9.856;2023-05-07T01:36:54;17.60;;;9.88;;
52838;SDS011;39219;53.678;9.856;2023-05-07T01:39:23;18.27;;;10.35;;
52838;SDS011;39219;53.678;9.856;2023-05-07T01:41:53;16.27;;;9.43;;
52838;SDS011;39219;53.678;9.856;2023-05-07T01:44:20;18.17;;;9.88;;
52838;SDS011;39219;53.678;9.856;2023-05-07T01:46:48;16.65;;;9.35;;
52838;SDS011;39219;53.678;9.856;2023-05-07T01:49:15;15.85;;;9.20;;
52838;SDS011;39219;53.678;9.856;2023-05-07T01:51:42;16.70;;;9.52;;
52838;SDS011;39219;53.678;9.856;2023-05-07T01:54:09;16.45;;;9.18;;
52838;SDS011;39219;53.678;9.856;2023-05-07T01:56:36;17.55;;;9.80;;
52838;SDS011;39219;53.678;9.856;2023-05-07T01:59:04;16.48;;;9.55;;
52838;SDS011;39219;53.678;9.856;2023-05-07T02:01:30;16.70;;;9.32;;
52838;SDS011;39219;53.678;9.856;2023-05-07T02:03:57;15.25;;;9.27;;
52838;SDS011;39219;53.678;9.856;2023-05-07T02:06:23;17.02;;;9.63;;
52838;SDS011;39219;53.678;9.856;2023-05-07T02:08:49;18.15;;;9.43;;
52838;SDS011;39219;53.678;9.856;2023-05-07T02:11:16;16.58;;;9.38;;
52838;SDS011;39219;53.678;9.856;2023-05-07T02:13:42;18.10;;;10.05;;
52838;SDS011;39219;53.678;9.856;2023-05-07T02:16:10;17.20;;;9.52;;
52838;SDS011;39219;53.678;9.856;2023-05-07T02:18:39;18.60;;;10.15;;
52838;SDS011;39219;53.678;9.856;2023-05-07T02:21:05;15.88;;;9.27;;
52838;SDS011;39219;53.678;9.856;2023-05-07T02:23:32;18.23;;;10.05;;
52838;SDS011;39219;53.678;9.856;2023-05-07T02:25:58;16.40;;;8.98;;
52838;SDS011;39219;53.678;9.856;2023-05-07T02:28:25;15.38;;;8.93;;
52838;SDS011;39219;53.678;9.856;2023-05-07T02:30:51;14.60;;;8.88;;
52838;SDS011;39219;53.678;9.856;2023-05-07T02:33:20;18.15;;;9.52;;
52838;SDS011;39219;53.678;9.856;2023-05-07T02:35:46;16.38;;;9.10;;
52838;SDS011;39219;53.678;9.856;2023-05-07T02:38:12;15.90;;;8.85;;
52838;SDS011;39219;53.678;9.856;2023-05-07T02:40:39;14.50;;;8.52;;
52838;SDS011;39219;53.678;9.856;2023-05-07T02:43:05;15.40;;;8.48;;
52838;SDS011;39219;53.678;9.856;2023-05-07T02:45:32;15.45;;;8.68;;
52838;SDS011;39219;53.678;9.856;2023-05-07T02:47:58;15.00;;;8.68;;
52838;SDS011;39219;53.678;9.856;2023-05-07T02:50:26;16.35;;;8.15;;
52838;SDS011;39219;53.678;9.856;2023-05-07T02:52:53;14.13;;;8.20;;
52838;SDS011;39219;53.678;9.856;2023-05-07T02:55:19;13.75;;;7.95;;
52838;SDS011;39219;53.678;9.856;2023-05-07T02:57:46;13.48;;;8.43;;
52838;SDS011;39219;53.678;9.856;2023-05-07T03:00:13;16.08;;;8.68;;
52838;SDS011;39219;53.678;9.856;2023-05-07T03:02:42;16.75;;;8.90;;
52838;SDS011;39219;53.678;9.856;2023-05-07T03:05:08;15.80;;;9.30;;
52838;SDS011;39219;53.678;9.856;2023-05-07T03:07:37;15.85;;;8.93;;
52838;SDS011;39219;53.678;9.856;2023-05-07T03:10:03;17.20;;;9.48;;
52838;SDS011;39219;53.678;9.856;2023-05-07T03:12:31;17.08;;;8.90;;
52838;SDS011;39219;53.678;9.856;2023-05-07T03:14:57;17.02;;;9.25;;
52838;SDS011;39219;53.678;9.856;2023-05-07T03:17:24;15.07;;;9.15;;
52838;SDS011;39219;53.678;9.856;2023-05-07T03:19:50;16.30;;;8.70;;
52838;SDS011;39219;53.678;9.856;2023-05-07T03:22:17;15.93;;;9.18;;
52838;SDS011;39219;53.678;9.856;2023-05-07T03:24:45;17.58;;;9.25;;
52838;SDS011;39219;53.678;9.856;2023-05-07T03:27:11;17.05;;;9.13;;
52838;SDS011;39219;53.678;9.856;2023-05-07T03:29:37;16.23;;;9.18;;
52838;SDS011;39219;53.678;9.856;2023-05-07T03:32:04;15.88;;;9.20;;
52838;SDS011;39219;53.678;9.856;2023-05-07T03:34:31;15.98;;;9.63;;
52838;SDS011;39219;53.678;9.856;2023-05-07T03:36:57;16.67;;;9.68;;
52838;SDS011;39219;53.678;9.856;2023-05-07T03:39:23;18.15;;;9.35;;
52838;SDS011;39219;53.678;9.856;2023-05-07T03:41:51;18.98;;;9.95;;
52838;SDS011;39219;53.678;9.856;2023-05-07T03:44:18;17.50;;;9.95;;
52838;SDS011;39219;53.678;9.856;2023-05-07T03:46:45;17.40;;;9.57;;
52838;SDS011;39219;53.678;9.856;2023-05-07T03:49:11;17.92;;;10.40;;
52838;SDS011;39219;53.678;9.856;2023-05-07T03:51:37;18.73;;;10.57;;
52838;SDS011;39219;53.678;9.856;2023-05-07T03:54:04;16.98;;;10.13;;
52838;SDS011;39219;53.678;9.856;2023-05-07T03:56:30;15.73;;;9.15;;
52838;SDS011;39219;53.678;9.856;2023-05-07T03:58:58;18.10;;;9.88;;
52838;SDS011;39219;53.678;9.856;2023-05-07T04:01:25;19.30;;;9.63;;
52838;SDS011;39219;53.678;9.856;2023-05-07T04:03:52;18.40;;;9.77;;
52838;SDS011;39219;53.678;9.856;2023-05-07T04:06:18;17.27;;;9.88;;
52838;SDS011;39219;53.678;9.856;2023-05-07T04:08:45;17.13;;;9.23;;
52838;SDS011;39219;53.678;9.856;2023-05-07T04:11:12;16.00;;;9.32;;
52838;SDS011;39219;53.678;9.856;2023-05-07T04:13:38;17.00;;;9.80;;
52838;SDS011;39219;53.678;9.856;2023-05-07T04:16:06;15.50;;;9.02;;
52838;SDS011;39219;53.678;9.856;2023-05-07T04:18:33;16.60;;;9.30;;
52838;SDS011;39219;53.678;9.856;2023-05-07T04:20:59;14.93;;;8.75;;
52838;SDS011;39219;53.678;9.856;2023-05-07T04:23:25;15.93;;;9.20;;
52838;SDS011;39219;53.678;9.856;2023-05-07T04:25:52;16.85;;;9.73;;
52838;SDS011;39219;53.678;9.856;2023-05-07T04:28:19;15.68;;;9.30;;
52838;SDS011;39219;53.678;9.856;2023-05-07T04:30:46;15.82;;;9.30;;
52838;SDS011;39219;53.678;9.856;2023-05-07T04:33:14;18.67;;;9.02;;
52838;SDS011;39219;53.678;9.856;2023-05-07T04:35:41;16.23;;;9.50;;
52838;SDS011;39219;53.678;9.856;2023-05-07T04:38:08;15.70;;;9.00;;
52838;SDS011;39219;53.678;9.856;2023-05-07T04:40:35;15.95;;;9.10;;
52838;SDS011;39219;53.678;9.856;2023-05-07T04:43:01;15.57;;;8.85;;
52838;SDS011;39219;53.678;9.856;2023-05-07T04:45:28;15.52;;;9.00;;
52838;SDS011;39219;53.678;9.856;2023-05-07T04:47:54;14.93;;;9.02;;
52838;SDS011;39219;53.678;9.856;2023-05-07T04:50:22;14.23;;;8.25;;
52838;SDS011;39219;53.678;9.856;2023-05-07T04:52:49;14.18;;;8.48;;
52838;SDS011;39219;53.678;9.856;2023-05-07T04:55:16;15.93;;;8.65;;
52838;SDS011;39219;53.678;9.856;2023-05-07T04:57:42;14.27;;;8.30;;
52838;SDS011;39219;53.678;9.856;2023-05-07T05:00:09;14.20;;;8.15;;
52838;SDS011;39219;53.678;9.856;2023-05-07T05:02:39;14.13;;;8.75;;
52838;SDS011;39219;53.678;9.856;2023-05-07T05:05:05;14.02;;;8.25;;
52838;SDS011;39219;53.678;9.856;2023-05-07T05:07:34;15.43;;;8.90;;
52838;SDS011;39219;53.678;9.856;2023-05-07T05:10:01;16.27;;;8.70;;
52838;SDS011;39219;53.678;9.856;2023-05-07T05:12:28;16.00;;;9.27;;
52838;SDS011;39219;53.678;9.856;2023-05-07T05:14:55;16.13;;;9.32;;
52838;SDS011;39219;53.678;9.856;2023-05-07T05:17:21;15.80;;;9.43;;
52838;SDS011;39219;53.678;9.856;2023-05-07T05:19:48;15.13;;;8.90;;
52838;SDS011;39219;53.678;9.856;2023-05-07T05:22:14;16.75;;;9.32;;
52838;SDS011;39219;53.678;9.856;2023-05-07T05:24:42;15.40;;;8.70;;
52838;SDS011;39219;53.678;9.856;2023-05-07T05:27:09;15.02;;;9.10;;
52838;SDS011;39219;53.678;9.856;2023-05-07T05:29:35;16.33;;;8.30;;
52838;SDS011;39219;53.678;9.856;2023-05-07T05:32:02;15.18;;;8.05;;
52838;SDS011;39219;53.678;9.856;2023-05-07T05:34:28;13.05;;;8.05;;
52838;SDS011;39219;53.678;9.856;2023-05-07T05:36:55;15.63;;;8.18;;
52838;SDS011;39219;53.678;9.856;2023-05-07T05:39:21;13.02;;;7.15;;
52838;SDS011;39219;53.678;9.856;2023-05-07T05:41:49;12.98;;;7.53;;
52838;SDS011;39219;53.678;9.856;2023-05-07T05:44:16;13.25;;;7.95;;
52838;SDS011;39219;53.678;9.856;2023-05-07T05:46:42;13.77;;;7.55;;
52838;SDS011;39219;53.678;9.856;2023-05-07T05:49:09;14.25;;;8.23;;
52838;SDS011;39219;53.678;9.856;2023-05-07T05:51:35;13.18;;;7.88;;
52838;SDS011;39219;53.678;9.856;2023-05-07T05:54:02;14.40;;;8.68;;
52838;SDS011;39219;53.678;9.856;2023-05-07T05:56:28;14.70;;;8.20;;
52838;SDS011;39219;53.678;9.856;2023-05-07T05:58:56;13.90;;;8.13;;
52838;SDS011;39219;53.678;9.856;2023-05-07T06:01:22;14.75;;;8.27;;
52838;SDS011;39219;53.678;9.856;2023-05-07T06:03:49;14.80;;;8.48;;
52838;SDS011;39219;53.678;9.856;2023-05-07T06:06:15;14.23;;;8.50;;
52838;SDS011;39219;53.678;9.856;2023-05-07T06:08:42;15.65;;;8.23;;
52838;SDS011;39219;53.678;9.856;2023-05-07T06:11:08;15.35;;;8.40;;
52838;SDS011;39219;53.678;9.856;2023-05-07T06:13:35;14.07;;;8.38;;
52838;SDS011;39219;53.678;9.856;2023-05-07T06:16:03;15.70;;;8.40;;
52838;SDS011;39219;53.678;9.856;2023-05-07T06:18:30;13.20;;;7.72;;
52838;SDS011;39219;53.678;9.856;2023-05-07T06:20:56;14.20;;;8.50;;
52838;SDS011;39219;53.678;9.856;2023-05-07T06:23:23;14.05;;;7.97;;
52838;SDS011;39219;53.678;9.856;2023-05-07T06:25:49;12.18;;;7.28;;
52838;SDS011;39219;53.678;9.856;2023-05-07T06:28:16;13.60;;;8.05;;
52838;SDS011;39219;53.678;9.856;2023-05-07T06:30:43;13.13;;;7.97;;
52838;SDS011;39219;53.678;9.856;2023-05-07T06:33:11;12.57;;;7.65;;
52838;SDS011;39219;53.678;9.856;2023-05-07T06:35:37;13.15;;;7.90;;
52838;SDS011;39219;53.678;9.856;2023-05-07T06:38:04;14.13;;;8.18;;
52838;SDS011;39219;53.678;9.856;2023-05-07T06:40:30;12.90;;;7.38;;
52838;SDS011;39219;53.678;9.856;2023-05-07T06:42:57;14.63;;;8.15;;
52838;SDS011;39219;53.678;9.856;2023-05-07T06:45:23;13.98;;;8.23;;
52838;SDS011;39219;53.678;9.856;2023-05-07T06:47:50;14.25;;;8.43;;
52838;SDS011;39219;53.678;9.856;2023-05-07T06:50:18;12.45;;;8.02;;
52838;SDS011;39219;53.678;9.856;2023-05-07T06:52:44;12.50;;;7.93;;
52838;SDS011;39219;53.678;9.856;2023-05-07T06:55:10;12.75;;;7.90;;
52838;SDS011;39219;53.678;9.856;2023-05-07T06:57:37;12.68;;;7.47;;
52838;SDS011;39219;53.678;9.856;2023-05-07T07:00:04;13.25;;;7.60;;
52838;SDS011;39219;53.678;9.856;2023-05-07T07:02:33;11.95;;;7.47;;
52838;SDS011;39219;53.678;9.856;2023-05-07T07:05:00;12.38;;;7.80;;
52838;SDS011;39219;53.678;9.856;2023-05-07T07:07:28;12.75;;;7.00;;
52838;SDS011;39219;53.678;9.856;2023-05-07T07:09:55;12.10;;;7.78;;
52838;SDS011;39219;53.678;9.856;2023-05-07T07:12:21;12.23;;;7.30;;
52838;SDS011;39219;53.678;9.856;2023-05-07T07:14:49;12.05;;;7.30;;
52838;SDS011;39219;53.678;9.856;2023-05-07T07:17:16;12.18;;;7.32;;
52838;SDS011;39219;53.678;9.856;2023-05-07T07:19:42;13.02;;;7.38;;
52838;SDS011;39219;53.678;9.856;2023-05-07T07:22:09;11.23;;;7.00;;
52838;SDS011;39219;53.678;9.856;2023-05-07T07:24:37;12.82;;;7.20;;
52838;SDS011;39219;53.678;9.856;2023-05-07T07:27:03;10.95;;;6.68;;
52838;SDS011;39219;53.678;9.856;2023-05-07T07:29:30;11.07;;;6.88;;
52838;SDS011;39219;53.678;9.856;2023-05-07T07:31:56;10.10;;;6.85;;
52838;SDS011;39219;53.678;9.856;2023-05-07T07:34:23;15.57;;;6.68;;
52838;SDS011;39219;53.678;9.856;2023-05-07T07:36:49;11.30;;;6.85;;
52838;SDS011;39219;53.678;9.856;2023-05-07T07:39:16;10.15;;;6.40;;
52838;SDS011;39219;53.678;9.856;2023-05-07T07:41:43;11.40;;;6.75;;
52838;SDS011;39219;53.678;9.856;2023-05-07T07:44:10;10.05;;;6.05;;
52838;SDS011;39219;53.678;9.856;2023-05-07T07:46:38;10.88;;;6.45;;
52838;SDS011;39219;53.678;9.856;2023-05-07T07:49:04;13.00;;;6.85;;
52838;SDS011;39219;53.678;9.856;2023-05-07T07:51:31;11.80;;;6.70;;
52838;SDS011;39219;53.678;9.856;2023-05-07T07:53:57;10.75;;;6.53;;
52838;SDS011;39219;53.678;9.856;2023-05-07T07:56:24;10.70;;;6.55;;
52838;SDS011;39219;53.678;9.856;2023-05-07T07:58:51;10.88;;;6.82;;
52838;SDS011;39219;53.678;9.856;2023-05-07T08:01:18;11.18;;;6.43;;
52838;SDS011;39219;53.678;9.856;2023-05-07T08:03:44;11.27;;;6.40;;
52838;SDS011;39219;53.678;9.856;2023-05-07T08:06:11;10.20;;;6.80;;
52838;SDS011;39219;53.678;9.856;2023-05-07T08:08:37;11.35;;;6.47;;
52838;SDS011;39219;53.678;9.856;2023-05-07T08:11:04;9.90;;;5.97;;
52838;SDS011;39219;53.678;9.856;2023-05-07T08:13:30;10.00;;;6.05;;
52838;SDS011;39219;53.678;9.856;2023-05-07T08:15:58;10.45;;;6.13;;
52838;SDS011;39219;53.678;9.856;2023-05-07T08:18:25;10.38;;;6.28;;
52838;SDS011;39219;53.678;9.856;2023-05-07T08:20:53;10.55;;;6.53;;
52838;SDS011;39219;53.678;9.856;2023-05-07T08:23:20;10.57;;;6.32;;
52838;SDS011;39219;53.678;9.856;2023-05-07T08:25:47;9.77;;;6.32;;
52838;SDS011;39219;53.678;9.856;2023-05-07T08:28:13;11.05;;;6.60;;
52838;SDS011;39219;53.678;9.856;2023-05-07T08:30:40;10.88;;;6.68;;
52838;SDS011;39219;53.678;9.856;2023-05-07T08:33:09;9.65;;;6.10;;
52838;SDS011;39219;53.678;9.856;2023-05-07T08:35:36;10.00;;;5.90;;
52838;SDS011;39219;53.678;9.856;2023-05-07T08:38:02;9.48;;;6.45;;
52838;SDS011;39219;53.678;9.856;2023-05-07T08:40:28;11.10;;;6.70;;
52838;SDS011;39219;53.678;9.856;2023-05-07T08:42:59;10.27;;;6.53;;
52838;SDS011;39219;53.678;9.856;2023-05-07T08:45:28;10.18;;;6.43;;
52838;SDS011;39219;53.678;9.856;2023-05-07T08:47:58;10.57;;;6.70;;
52838;SDS011;39219;53.678;9.856;2023-05-07T08:50:27;9.85;;;6.22;;
52838;SDS011;39219;53.678;9.856;2023-05-07T08:52:53;10.00;;;6.28;;
52838;SDS011;39219;53.678;9.856;2023-05-07T08:55:22;11.50;;;6.32;;
52838;SDS011;39219;53.678;9.856;2023-05-07T08:57:49;10.32;;;6.72;;
52838;SDS011;39219;53.678;9.856;2023-05-07T09:00:17;12.10;;;6.85;;
52838;SDS011;39219;53.678;9.856;2023-05-07T09:02:44;10.02;;;6.30;;
52838;SDS011;39219;53.678;9.856;2023-05-07T09:05:10;9.95;;;6.38;;
52838;SDS011;39219;53.678;9.856;2023-05-07T09:07:38;11.23;;;6.47;;
52838;SDS011;39219;53.678;9.856;2023-05-07T09:10:05;9.55;;;6.18;;
52838;SDS011;39219;53.678;9.856;2023-05-07T09:12:33;11.73;;;6.60;;
52838;SDS011;39219;53.678;9.856;2023-05-07T09:15:00;10.88;;;6.38;;
52838;SDS011;39219;53.678;9.856;2023-05-07T09:17:27;9.68;;;6.28;;
52838;SDS011;39219;53.678;9.856;2023-05-07T09:19:54;9.65;;;6.10;;
52838;SDS011;39219;53.678;9.856;2023-05-07T09:22:21;10.40;;;6.80;;
52838;SDS011;39219;53.678;9.856;2023-05-07T09:24:49;10.88;;;6.35;;
52838;SDS011;39219;53.678;9.856;2023-05-07T09:27:17;10.90;;;6.60;;
52838;SDS011;39219;53.678;9.856;2023-05-07T09:29:43;9.65;;;6.10;;
52838;SDS011;39219;53.678;9.856;2023-05-07T09:32:10;11.20;;;6.15;;
52838;SDS011;39219;53.678;9.856;2023-05-07T09:34:37;9.15;;;5.88;;
52838;SDS011;39219;53.678;9.856;2023-05-07T09:37:03;9.90;;;5.65;;
52838;SDS011;39219;53.678;9.856;2023-05-07T09:39:38;8.93;;;5.57;;
52838;SDS011;39219;53.678;9.856;2023-05-07T09:42:07;11.15;;;5.90;;
52838;SDS011;39219;53.678;9.856;2023-05-07T09:44:33;9.23;;;5.80;;
52838;SDS011;39219;53.678;9.856;2023-05-07T09:47:00;8.07;;;5.30;;
52838;SDS011;39219;53.678;9.856;2023-05-07T09:49:29;8.50;;;5.43;;
52838;SDS011;39219;53.678;9.856;2023-05-07T09:51:56;8.40;;;5.53;;
52838;SDS011;39219;53.678;9.856;2023-05-07T09:54:24;9.15;;;5.80;;
52838;SDS011;39219;53.678;9.856;2023-05-07T09:56:52;9.10;;;5.57;;
52838;SDS011;39219;53.678;9.856;2023-05-07T09:59:20;9.80;;;5.75;;
52838;SDS011;39219;53.678;9.856;2023-05-07T10:01:48;9.13;;;5.55;;
52838;SDS011;39219;53.678;9.856;2023-05-07T10:04:15;10.38;;;5.30;;
52838;SDS011;39219;53.678;9.856;2023-05-07T10:06:43;8.30;;;5.28;;
52838;SDS011;39219;53.678;9.856;2023-05-07T10:09:10;9.38;;;5.60;;
52838;SDS011;39219;53.678;9.856;2023-05-07T10:11:38;7.03;;;4.90;;
52838;SDS011;39219;53.678;9.856;2023-05-07T10:14:05;9.38;;;5.07;;
52838;SDS011;39219;53.678;9.856;2023-05-07T10:16:34;8.35;;;5.20;;
52838;SDS011;39219;53.678;9.856;2023-05-07T10:19:02;8.52;;;5.10;;
52838;SDS011;39219;53.678;9.856;2023-05-07T10:21:29;7.78;;;5.05;;
52838;SDS011;39219;53.678;9.856;2023-05-07T10:23:58;9.25;;;5.20;;
52838;SDS011;39219;53.678;9.856;2023-05-07T10:26:25;10.43;;;5.85;;
52838;SDS011;39219;53.678;9.856;2023-05-07T10:28:57;8.57;;;5.35;;
52838;SDS011;39219;53.678;9.856;2023-05-07T10:31:50;8.98;;;5.50;;
52838;SDS011;39219;53.678;9.856;2023-05-07T10:34:26;7.80;;;5.43;;
52838;SDS011;39219;53.678;9.856;2023-05-07T10:36:55;9.27;;;5.38;;
52838;SDS011;39219;53.678;9.856;2023-05-07T10:39:23;8.60;;;5.47;;
52838;SDS011;39219;53.678;9.856;2023-05-07T10:41:50;10.38;;;5.75;;
52838;SDS011;39219;53.678;9.856;2023-05-07T10:44:26;9.32;;;5.72;;
52838;SDS011;39219;53.678;9.856;2023-05-07T10:47:10;7.45;;;5.07;;
52838;SDS011;39219;53.678;9.856;2023-05-07T10:52:37;8.50;;;5.35;;
52838;SDS011;39219;53.678;9.856;2023-05-07T10:55:19;8.77;;;5.22;;
52838;SDS011;39219;53.678;9.856;2023-05-07T10:57:46;8.90;;;5.50;;
52838;SDS011;39219;53.678;9.856;2023-05-07T11:03:08;8.13;;;5.10;;
52838;SDS011;39219;53.678;9.856;2023-05-07T11:05:35;7.45;;;4.93;;
52838;SDS011;39219;53.678;9.856;2023-05-07T11:08:02;8.18;;;5.53;;
52838;SDS011;39219;53.678;9.856;2023-05-07T11:10:49;9.50;;;5.10;;
52838;SDS011;39219;53.678;9.856;2023-05-07T11:13:17;8.27;;;4.80;;
52838;SDS011;39219;53.678;9.856;2023-05-07T11:15:44;6.95;;;5.00;;
52838;SDS011;39219;53.678;9.856;2023-05-07T11:18:14;8.90;;;5.25;;
52838;SDS011;39219;53.678;9.856;2023-05-07T11:20:55;7.05;;;4.60;;
52838;SDS011;39219;53.678;9.856;2023-05-07T11:26:41;7.80;;;4.82;;
52838;SDS011;39219;53.678;9.856;2023-05-07T11:29:13;8.43;;;5.25;;
52838;SDS011;39219;53.678;9.856;2023-05-07T11:31:41;7.45;;;5.03;;
52838;SDS011;39219;53.678;9.856;2023-05-07T11:34:09;7.03;;;4.80;;
52838;SDS011;39219;53.678;9.856;2023-05-07T11:36:35;7.85;;;4.72;;
52838;SDS011;39219;53.678;9.856;2023-05-07T11:41:52;5.35;;;4.00;;
52838;SDS011;39219;53.678;9.856;2023-05-07T11:44:18;7.13;;;4.75;;
52838;SDS011;39219;53.678;9.856;2023-05-07T11:46:45;9.00;;;4.50;;
52838;SDS011;39219;53.678;9.856;2023-05-07T11:49:13;6.82;;;4.10;;
52838;SDS011;39219;53.678;9.856;2023-05-07T11:51:40;6.13;;;4.13;;
52838;SDS011;39219;53.678;9.856;2023-05-07T11:54:07;9.98;;;4.75;;
52838;SDS011;39219;53.678;9.856;2023-05-07T11:56:36;6.53;;;4.03;;
52838;SDS011;39219;53.678;9.856;2023-05-07T11:59:03;6.70;;;4.05;;
52838;SDS011;39219;53.678;9.856;2023-05-07T12:01:30;7.07;;;4.10;;
52838;SDS011;39219;53.678;9.856;2023-05-07T12:03:56;5.72;;;3.78;;
52838;SDS011;39219;53.678;9.856;2023-05-07T12:06:24;6.40;;;3.97;;
52838;SDS011;39219;53.678;9.856;2023-05-07T12:08:52;6.50;;;4.20;;
52838;SDS011;39219;53.678;9.856;2023-05-07T12:11:22;6.45;;;4.03;;
52838;SDS011;39219;53.678;9.856;2023-05-07T12:13:50;6.57;;;4.00;;
52838;SDS011;39219;53.678;9.856;2023-05-07T12:16:16;6.35;;;4.05;;
52838;SDS011;39219;53.678;9.856;2023-05-07T12:18:43;5.13;;;3.60;;
52838;SDS011;39219;53.678;9.856;2023-05-07T12:21:10;5.88;;;3.80;;
52838;SDS011;39219;53.678;9.856;2023-05-07T12:23:39;6.13;;;4.10;;
52838;SDS011;39219;53.678;9.856;2023-05-07T12:26:06;7.10;;;4.32;;
52838;SDS011;39219;53.678;9.856;2023-05-07T12:28:35;5.88;;;4.40;;
52838;SDS011;39219;53.678;9.856;2023-05-07T12:31:03;6.55;;;4.22;;
52838;SDS011;39219;53.678;9.856;2023-05-07T12:33:30;6.30;;;3.70;;
52838;SDS011;39219;53.678;9.856;2023-05-07T12:35:58;5.40;;;3.88;;
52838;SDS011;39219;53.678;9.856;2023-05-07T12:38:24;5.30;;;3.72;;
52838;SDS011;39219;53.678;9.856;2023-05-07T12:40:54;5.47;;;3.60;;
52838;SDS011;39219;53.678;9.856;2023-05-07T12:43:21;5.57;;;3.80;;
52838;SDS011;39219;53.678;9.856;2023-05-07T12:45:51;5.90;;;3.78;;
52838;SDS011;39219;53.678;9.856;2023-05-07T12:48:20;5.72;;;3.50;;
52838;SDS011;39219;53.678;9.856;2023-05-07T12:50:48;5.28;;;3.70;;
52838;SDS011;39219;53.678;9.856;2023-05-07T12:53:15;6.07;;;3.72;;
52838;SDS011;39219;53.678;9.856;2023-05-07T12:55:42;4.85;;;3.45;;
52838;SDS011;39219;53.678;9.856;2023-05-07T12:58:15;5.50;;;3.50;;
52838;SDS011;39219;53.678;9.856;2023-05-07T13:00:42;4.50;;;3.50;;
52838;SDS011;39219;53.678;9.856;2023-05-07T13:03:10;6.47;;;3.55;;
52838;SDS011;39219;53.678;9.856;2023-05-07T13:05:37;3.63;;;3.13;;
52838;SDS011;39219;53.678;9.856;2023-05-07T13:08:03;4.68;;;3.25;;
52838;SDS011;39219;53.678;9.856;2023-05-07T13:10:30;4.80;;;2.97;;
52838;SDS011;39219;53.678;9.856;2023-05-07T13:12:57;3.45;;;3.13;;
52838;SDS011;39219;53.678;9.856;2023-05-07T13:15:25;4.47;;;3.30;;
52838;SDS011;39219;53.678;9.856;2023-05-07T13:17:52;8.50;;;3.13;;
52838;SDS011;39219;53.678;9.856;2023-05-07T13:20:18;5.10;;;3.10;;
52838;SDS011;39219;53.678;9.856;2023-05-07T13:22:45;4.72;;;3.22;;
52838;SDS011;39219;53.678;9.856;2023-05-07T13:25:11;4.53;;;3.05;;
52838;SDS011;39219;53.678;9.856;2023-05-07T13:27:38;3.85;;;2.88;;
52838;SDS011;39219;53.678;9.856;2023-05-07T13:30:05;5.10;;;3.17;;
52838;SDS011;39219;53.678;9.856;2023-05-07T13:32:33;4.00;;;3.00;;
52838;SDS011;39219;53.678;9.856;2023-05-07T13:35:00;4.07;;;3.20;;
52838;SDS011;39219;53.678;9.856;2023-05-07T13:37:27;4.28;;;2.90;;
52838;SDS011;39219;53.678;9.856;2023-05-07T13:39:53;4.75;;;2.97;;
52838;SDS011;39219;53.678;9.856;2023-05-07T13:42:20;3.00;;;2.70;;
52838;SDS011;39219;53.678;9.856;2023-05-07T13:44:46;5.93;;;3.08;;
52838;SDS011;39219;53.678;9.856;2023-05-07T13:47:13;3.63;;;2.70;;
52838;SDS011;39219;53.678;9.856;2023-05-07T13:49:40;3.55;;;2.97;;
52838;SDS011;39219;53.678;9.856;2023-05-07T13:52:07;4.18;;;2.90;;
52838;SDS011;39219;53.678;9.856;2023-05-07T13:54:33;3.20;;;2.90;;
52838;SDS011;39219;53.678;9.856;2023-05-07T13:57:00;3.58;;;3.00;;
52838;SDS011;39219;53.678;9.856;2023-05-07T13:59:26;4.47;;;2.65;;
52838;SDS011;39219;53.678;9.856;2023-05-07T14:01:53;3.85;;;2.78;;
52838;SDS011;39219;53.678;9.856;2023-05-07T14:04:20;4.78;;;2.90;;
52838;SDS011;39219;53.678;9.856;2023-05-07T14:06:48;3.35;;;2.85;;
52838;SDS011;39219;53.678;9.856;2023-05-07T14:09:14;2.90;;;2.42;;
52838;SDS011;39219;53.678;9.856;2023-05-07T14:11:41;4.40;;;3.10;;
52838;SDS011;39219;53.678;9.856;2023-05-07T14:14:07;3.30;;;2.80;;
52838;SDS011;39219;53.678;9.856;2023-05-07T14:16:35;3.90;;;2.60;;
52838;SDS011;39219;53.678;9.856;2023-05-07T14:19:02;4.22;;;3.00;;
52838;SDS011;39219;53.678;9.856;2023-05-07T14:21:28;5.60;;;3.05;;
52838;SDS011;39219;53.678;9.856;2023-05-07T14:23:57;3.40;;;2.60;;
52838;SDS011;39219;53.678;9.856;2023-05-07T14:26:24;6.13;;;2.70;;
52838;SDS011;39219;53.678;9.856;2023-05-07T14:28:52;2.90;;;2.60;;
52838;SDS011;39219;53.678;9.856;2023-05-07T14:31:19;3.95;;;2.88;;
52838;SDS011;39219;53.678;9.856;2023-05-07T14:33:46;3.58;;;2.83;;
52838;SDS011;39219;53.678;9.856;2023-05-07T14:36:14;5.30;;;2.60;;
52838;SDS011;39219;53.678;9.856;2023-05-07T14:38:41;5.28;;;3.00;;
52838;SDS011;39219;53.678;9.856;2023-05-07T14:41:09;3.85;;;2.60;;
52838;SDS011;39219;53.678;9.856;2023-05-07T14:43:35;3.42;;;2.50;;
52838;SDS011;39219;53.678;9.856;2023-05-07T14:46:02;3.47;;;2.60;;
52838;SDS011;39219;53.678;9.856;2023-05-07T14:48:28;3.38;;;2.50;;
52838;SDS011;39219;53.678;9.856;2023-05-07T14:50:55;4.75;;;2.70;;